Time;durP1;ratioP1;P1;durP2;ratioP2;P2;SDS_P1;SDS_P2;PMS_P1;PMS_P2;Temp;Humidity;BMP_temperature;BMP_pressure;BME280_temperature;BME280_humidity;BME280_pressure;Samples;Min_cycle;Max_cycle;Signal;HPM_P1;HPM_P2
2023/03/09 00:02:06;;;;;;;33.40;20.80;;;;;;;;;;10322556;28;20425;-84
2023/03/09 00:07:08;;;;;;;31.85;20.42;;;;;;;;;;10324569;28;20487;-83
2023/03/09 00:12:29;;;;;;;31.77;21.20;;;;;;;;;;10323217;28;20520;-84
2023/03/09 00:17:31;;;;;;;33.75;21.45;;;;;;;;;;10322293;28;20427;-83
2023/03/09 00:22:33;;;;;;;31.60;20.73;;;;;;;;;;10321103;28;20413;-84
2023/03/09 00:27:36;;;;;;;33.60;21.67;;;;;;;;;;10319620;28;20524;-84
2023/03/09 00:32:39;;;;;;;33.28;21.13;;;;;;;;;;10321886;28;20436;-83
2023/03/09 00:37:40;;;;;;;32.33;19.92;;;;;;;;;;10319142;28;20917;-83
2023/03/09 00:42:45;;;;;;;31.70;19.97;;;;;;;;;;10317565;28;20404;-84
2023/03/09 00:47:47;;;;;;;28.52;19.65;;;;;;;;;;10320796;28;20438;-84
2023/03/09 00:52:48;;;;;;;31.27;20.00;;;;;;;;;;10320946;28;20791;-83
2023/03/09 00:57:52;;;;;;;28.42;19.10;;;;;;;;;;10322414;28;20401;-84
2023/03/09 01:02:54;;;;;;;25.98;18.23;;;;;;;;;;10321654;28;20524;-84
2023/03/09 01:07:56;;;;;;;27.35;18.55;;;;;;;;;;10327141;28;20448;-84
2023/03/09 01:12:59;;;;;;;25.23;17.00;;;;;;;;;;10327664;28;20441;-83
2023/03/09 01:18:01;;;;;;;23.52;16.60;;;;;;;;;;10327409;28;20438;-83
2023/03/09 01:23:03;;;;;;;23.60;16.25;;;;;;;;;;10324915;28;20413;-85
2023/03/09 01:28:06;;;;;;;23.05;15.73;;;;;;;;;;10326554;28;20401;-84
2023/03/09 01:33:08;;;;;;;23.73;15.63;;;;;;;;;;10326050;28;20899;-84
2023/03/09 01:38:10;;;;;;;22.35;14.88;;;;;;;;;;10323823;28;20409;-84
2023/03/09 01:43:39;;;;;;;22.17;14.93;;;;;;;;;;10326349;28;20422;-84
2023/03/09 01:48:41;;;;;;;21.27;14.55;;;;;;;;;;10324943;28;20487;-84
2023/03/09 01:53:43;;;;;;;19.90;14.45;;;;;;;;;;10324785;28;20520;-83
2023/03/09 01:58:49;;;;;;;23.25;14.77;;;;;;;;;;10323743;28;20767;-83
2023/03/09 02:03:59;;;;;;;21.95;15.15;;;;;;;;;;10323965;28;20415;-84
2023/03/09 02:09:08;;;;;;;20.63;14.53;;;;;;;;;;10320464;28;20551;-83
2023/03/09 02:14:11;;;;;;;20.35;14.50;;;;;;;;;;10325823;28;20429;-83
2023/03/09 02:19:22;;;;;;;25.40;16.15;;;;;;;;;;10322919;28;20925;-84
2023/03/09 02:24:34;;;;;;;22.90;15.00;;;;;;;;;;10322841;28;20405;-84
2023/03/09 02:29:37;;;;;;;22.95;14.60;;;;;;;;;;10319443;28;20457;-84
2023/03/09 02:34:39;;;;;;;21.45;14.73;;;;;;;;;;10324532;28;20416;-84
2023/03/09 02:39:47;;;;;;;21.58;15.18;;;;;;;;;;10325143;28;20419;-84
2023/03/09 02:44:51;;;;;;;22.07;15.97;;;;;;;;;;10324041;28;20427;-84
2023/03/09 02:49:52;;;;;;;19.80;14.52;;;;;;;;;;10324843;28;20421;-84
2023/03/09 02:54:54;;;;;;;22.73;15.30;;;;;;;;;;10326464;28;20413;-84
2023/03/09 02:59:57;;;;;;;24.08;14.88;;;;;;;;;;10326811;28;20409;-84
2023/03/09 03:04:59;;;;;;;24.67;16.77;;;;;;;;;;10327201;28;20417;-83
2023/03/09 03:10:01;;;;;;;24.67;16.70;;;;;;;;;;10326487;28;20448;-83
2023/03/09 03:15:05;;;;;;;25.23;17.20;;;;;;;;;;10324193;28;20455;-84
2023/03/09 03:20:12;;;;;;;24.90;17.07;;;;;;;;;;10325391;28;20407;-84
2023/03/09 03:25:16;;;;;;;26.45;17.30;;;;;;;;;;10326242;28;20477;-83
2023/03/09 03:30:19;;;;;;;23.77;16.55;;;;;;;;;;10326120;28;20457;-84
2023/03/09 03:35:21;;;;;;;23.20;16.35;;;;;;;;;;10322061;28;20772;-83
2023/03/09 03:40:24;;;;;;;24.05;15.93;;;;;;;;;;10324880;28;20413;-83
2023/03/09 03:45:27;;;;;;;24.10;15.55;;;;;;;;;;10325914;28;20423;-84
2023/03/09 03:50:29;;;;;;;26.67;16.60;;;;;;;;;;10325413;28;20436;-84
2023/03/09 03:55:31;;;;;;;24.70;16.48;;;;;;;;;;10325108;28;20879;-84
2023/03/09 04:00:35;;;;;;;25.65;15.82;;;;;;;;;;10323792;28;20895;-83
2023/03/09 04:05:37;;;;;;;23.98;16.67;;;;;;;;;;10325202;28;20404;-84
2023/03/09 04:10:39;;;;;;;23.20;15.77;;;;;;;;;;10324697;28;20519;-84
2023/03/09 04:15:43;;;;;;;26.60;15.48;;;;;;;;;;10324586;28;20855;-84
2023/03/09 04:20:45;;;;;;;22.98;15.38;;;;;;;;;;10325173;28;20417;-84
2023/03/09 04:25:55;;;;;;;22.67;15.27;;;;;;;;;;10322193;28;20506;-84
2023/03/09 04:30:59;;;;;;;21.75;14.13;;;;;;;;;;10322657;28;20471;-83
2023/03/09 04:36:01;;;;;;;23.80;15.33;;;;;;;;;;10325118;28;20417;-84
2023/03/09 04:41:03;;;;;;;25.20;14.25;;;;;;;;;;10330060;28;20404;-83
2023/03/09 04:46:06;;;;;;;23.73;15.20;;;;;;;;;;10332038;28;20420;-84
2023/03/09 04:51:08;;;;;;;22.83;15.18;;;;;;;;;;10331943;28;21054;-83
2023/03/09 04:56:10;;;;;;;21.20;14.45;;;;;;;;;;10331025;28;20511;-84
2023/03/09 05:01:14;;;;;;;21.50;14.18;;;;;;;;;;10331464;28;20503;-84
2023/03/09 05:06:15;;;;;;;21.42;14.73;;;;;;;;;;10331526;28;20455;-84
2023/03/09 05:11:17;;;;;;;21.27;14.27;;;;;;;;;;10331074;28;20428;-84
2023/03/09 05:16:20;;;;;;;21.10;14.40;;;;;;;;;;10330643;28;20419;-84
2023/03/09 05:21:23;;;;;;;21.85;14.25;;;;;;;;;;10330297;28;20767;-85
2023/03/09 05:26:25;;;;;;;22.37;14.33;;;;;;;;;;10328635;28;20478;-83
2023/03/09 05:31:28;;;;;;;23.48;14.68;;;;;;;;;;10328884;28;20443;-84
2023/03/09 05:36:31;;;;;;;21.40;14.35;;;;;;;;;;10326370;28;20427;-83
2023/03/09 05:41:33;;;;;;;22.35;14.55;;;;;;;;;;10327995;28;20475;-83
2023/03/09 05:46:36;;;;;;;21.05;14.57;;;;;;;;;;10327601;28;20778;-84
2023/03/09 05:51:37;;;;;;;24.27;15.07;;;;;;;;;;10324039;28;20424;-84
2023/03/09 05:56:40;;;;;;;25.45;15.38;;;;;;;;;;10325359;28;20435;-83
2023/03/09 06:01:43;;;;;;;22.93;14.33;;;;;;;;;;10320965;28;20417;-83
2023/03/09 06:06:45;;;;;;;21.20;14.03;;;;;;;;;;10315857;28;20431;-84
2023/03/09 06:11:47;;;;;;;23.15;14.43;;;;;;;;;;10314039;28;20429;-85
2023/03/09 06:16:50;;;;;;;25.73;14.85;;;;;;;;;;10311881;28;20410;-85
2023/03/09 06:21:52;;;;;;;21.85;15.05;;;;;;;;;;10316689;28;20410;-85
2023/03/09 06:26:57;;;;;;;24.17;15.18;;;;;;;;;;10316350;28;20924;-84
2023/03/09 06:32:00;;;;;;;26.73;15.13;;;;;;;;;;10325493;28;20421;-84
2023/03/09 06:37:02;;;;;;;24.83;15.13;;;;;;;;;;10321867;28;20408;-85
2023/03/09 06:42:05;;;;;;;25.40;15.77;;;;;;;;;;10325645;28;20410;-85
2023/03/09 06:47:09;;;;;;;24.77;14.80;;;;;;;;;;10324634;28;20536;-85
2023/03/09 06:52:11;;;;;;;24.95;14.32;;;;;;;;;;10348978;23;20469;-81
2023/03/09 06:57:13;;;;;;;26.25;14.85;;;;;;;;;;10341686;28;20410;-82
2023/03/09 07:02:16;;;;;;;22.42;14.68;;;;;;;;;;10333855;28;20491;-83
2023/03/09 07:07:18;;;;;;;22.08;13.95;;;;;;;;;;10335940;28;20416;-82
2023/03/09 07:12:20;;;;;;;23.30;13.73;;;;;;;;;;10344671;28;20462;-82
2023/03/09 07:17:23;;;;;;;21.90;14.20;;;;;;;;;;10344226;28;20411;-83
2023/03/09 07:22:25;;;;;;;24.13;13.60;;;;;;;;;;10347262;28;20854;-82
2023/03/09 07:27:28;;;;;;;22.33;13.70;;;;;;;;;;10335488;28;20953;-82
2023/03/09 07:32:31;;;;;;;22.83;13.98;;;;;;;;;;10341120;28;20545;-82
2023/03/09 07:37:33;;;;;;;20.67;13.45;;;;;;;;;;10339414;28;20416;-80
2023/03/09 07:42:34;;;;;;;23.23;13.90;;;;;;;;;;10340254;28;20648;-82
2023/03/09 07:47:38;;;;;;;23.30;13.80;;;;;;;;;;10342900;28;20494;-80
2023/03/09 07:52:40;;;;;;;26.15;14.02;;;;;;;;;;10334900;28;20429;-81
2023/03/09 07:57:43;;;;;;;24.65;14.88;;;;;;;;;;10341369;28;20428;-80
2023/03/09 08:02:46;;;;;;;24.10;14.67;;;;;;;;;;10339097;28;20405;-80
2023/03/09 08:07:49;;;;;;;22.25;14.80;;;;;;;;;;10342523;28;20405;-80
2023/03/09 08:12:51;;;;;;;26.17;15.50;;;;;;;;;;10343728;28;20492;-84
2023/03/09 08:17:54;;;;;;;25.27;14.77;;;;;;;;;;10340026;28;20506;-80
2023/03/09 08:22:57;;;;;;;24.25;14.73;;;;;;;;;;10346753;28;20777;-80
2023/03/09 08:27:59;;;;;;;24.05;14.88;;;;;;;;;;10348405;28;20886;-81
2023/03/09 08:33:02;;;;;;;26.05;15.93;;;;;;;;;;10349818;28;20795;-80
2023/03/09 08:38:04;;;;;;;24.67;14.75;;;;;;;;;;10351266;28;20442;-80
2023/03/09 08:43:06;;;;;;;24.20;15.80;;;;;;;;;;10346122;28;20409;-80
2023/03/09 08:48:09;;;;;;;24.73;16.33;;;;;;;;;;10342948;28;20810;-80
2023/03/09 08:53:11;;;;;;;25.55;15.93;;;;;;;;;;10348682;28;20466;-80
2023/03/09 08:58:13;;;;;;;24.05;14.88;;;;;;;;;;10352839;28;20441;-81
2023/03/09 09:03:17;;;;;;;26.77;16.10;;;;;;;;;;10345593;28;20465;-80
2023/03/09 09:08:19;;;;;;;26.00;15.88;;;;;;;;;;10341491;28;20415;-80
2023/03/09 09:13:21;;;;;;;24.98;14.95;;;;;;;;;;10347148;28;20590;-80
2023/03/09 09:18:24;;;;;;;29.42;16.13;;;;;;;;;;10347214;28;20440;-80
2023/03/09 09:28:35;;;;;;;26.48;16.35;;;;;;;;;;10329843;28;20412;-88
2023/03/09 09:33:38;;;;;;;24.88;15.95;;;;;;;;;;10331082;28;20877;-88
2023/03/09 09:38:40;;;;;;;24.95;15.73;;;;;;;;;;10332242;28;20452;-88
2023/03/09 09:43:43;;;;;;;24.27;15.63;;;;;;;;;;10330571;28;20487;-88
2023/03/09 09:48:48;;;;;;;26.00;15.68;;;;;;;;;;10330745;28;20407;-87
2023/03/09 09:54:00;;;;;;;24.97;16.47;;;;;;;;;;10330471;28;20511;-84
2023/03/09 09:59:06;;;;;;;31.08;15.93;;;;;;;;;;10329417;28;20432;-84
2023/03/09 10:04:17;;;;;;;25.52;16.30;;;;;;;;;;10329450;28;20441;-84
2023/03/09 10:09:23;;;;;;;26.13;16.60;;;;;;;;;;10329160;28;20419;-84
2023/03/09 10:14:31;;;;;;;25.10;16.17;;;;;;;;;;10329654;28;20436;-84
2023/03/09 10:19:38;;;;;;;27.33;17.07;;;;;;;;;;10329359;28;20415;-84
2023/03/09 10:24:43;;;;;;;28.70;17.60;;;;;;;;;;10326018;28;20433;-83
2023/03/09 10:29:51;;;;;;;24.65;18.05;;;;;;;;;;10328643;28;20424;-85
2023/03/09 10:34:59;;;;;;;27.07;17.40;;;;;;;;;;10326225;28;20429;-85
2023/03/09 10:40:03;;;;;;;26.73;17.23;;;;;;;;;;10327146;28;20476;-84
2023/03/09 10:45:15;;;;;;;29.52;17.90;;;;;;;;;;10324602;28;20417;-84
2023/03/09 10:50:21;;;;;;;29.15;18.08;;;;;;;;;;10326049;28;20436;-84
2023/03/09 10:55:36;;;;;;;25.87;17.40;;;;;;;;;;10316041;28;20905;-84
2023/03/09 11:00:59;;;;;;;27.20;17.77;;;;;;;;;;10310688;28;20431;-84
2023/03/09 11:06:26;;;;;;;29.05;18.15;;;;;;;;;;10314261;28;20433;-83
2023/03/09 11:11:29;;;;;;;26.77;17.90;;;;;;;;;;10325785;28;20421;-84
2023/03/09 11:16:34;;;;;;;26.67;18.05;;;;;;;;;;10317517;28;20405;-84
2023/03/09 11:21:40;;;;;;;26.48;18.20;;;;;;;;;;10312362;28;20489;-84
2023/03/09 11:26:47;;;;;;;26.98;18.77;;;;;;;;;;10310149;28;20417;-83
2023/03/09 11:31:49;;;;;;;27.90;18.67;;;;;;;;;;10320188;28;20826;-83
2023/03/09 11:36:58;;;;;;;27.38;18.58;;;;;;;;;;10324459;28;20484;-84
2023/03/09 11:42:03;;;;;;;30.20;18.40;;;;;;;;;;10319855;28;20532;-84
2023/03/09 11:47:08;;;;;;;27.67;18.40;;;;;;;;;;10322565;28;20404;-84
2023/03/09 11:52:20;;;;;;;27.67;19.33;;;;;;;;;;10312365;28;20835;-84
2023/03/09 11:57:24;;;;;;;27.13;19.53;;;;;;;;;;10304680;28;20420;-84
2023/03/09 12:02:33;;;;;;;28.20;18.58;;;;;;;;;;10311966;28;20464;-85
2023/03/09 12:07:42;;;;;;;24.95;18.42;;;;;;;;;;10323608;28;20445;-84
2023/03/09 12:12:48;;;;;;;27.33;18.73;;;;;;;;;;10320452;28;20436;-84
2023/03/09 12:17:54;;;;;;;27.13;18.63;;;;;;;;;;10320716;28;20420;-84
2023/03/09 12:22:58;;;;;;;27.17;17.85;;;;;;;;;;10312427;28;20449;-85
2023/03/09 12:28:03;;;;;;;27.70;18.13;;;;;;;;;;10303350;28;20979;-84
2023/03/09 12:33:05;;;;;;;25.25;18.05;;;;;;;;;;10303442;28;20489;-84
2023/03/09 12:38:26;;;;;;;24.13;18.35;;;;;;;;;;10304305;28;20953;-84
2023/03/09 12:43:49;;;;;;;26.30;18.73;;;;;;;;;;10304383;28;20469;-84
2023/03/09 12:48:51;;;;;;;26.75;18.33;;;;;;;;;;10309952;28;20444;-84
2023/03/09 12:54:20;;;;;;;26.13;18.20;;;;;;;;;;10304247;28;20945;-82
2023/03/09 12:59:27;;;;;;;24.85;18.08;;;;;;;;;;10308750;28;20397;-84
2023/03/09 13:04:29;;;;;;;25.88;18.10;;;;;;;;;;10313654;28;20414;-83
2023/03/09 13:09:36;;;;;;;28.65;18.38;;;;;;;;;;10307528;28;20422;-84
2023/03/09 13:15:19;;;;;;;23.75;17.50;;;;;;;;;;10318352;28;20798;-84
2023/03/09 13:20:35;;;;;;;25.30;17.60;;;;;;;;;;10316872;28;20405;-83
2023/03/09 13:25:47;;;;;;;25.85;17.40;;;;;;;;;;10306907;28;20431;-84
2023/03/09 13:30:50;;;;;;;23.60;17.70;;;;;;;;;;10317044;28;20417;-84
2023/03/09 13:35:56;;;;;;;23.73;18.10;;;;;;;;;;10317091;28;20544;-84
2023/03/09 13:41:01;;;;;;;23.98;16.45;;;;;;;;;;10328394;28;20415;-91
2023/03/09 13:46:15;;;;;;;29.80;18.25;;;;;;;;;;10323319;28;20436;-84
2023/03/09 13:51:38;;;;;;;24.20;17.80;;;;;;;;;;10325547;28;20507;-84
2023/03/09 13:56:41;;;;;;;25.63;16.80;;;;;;;;;;10320772;28;20999;-83
2023/03/09 14:01:43;;;;;;;24.00;17.33;;;;;;;;;;10313303;28;20417;-83
2023/03/09 14:06:45;;;;;;;24.33;16.58;;;;;;;;;;10312004;28;20418;-83
2023/03/09 14:11:48;;;;;;;23.98;16.42;;;;;;;;;;10309864;28;20435;-83
2023/03/09 14:16:53;;;;;;;24.17;16.35;;;;;;;;;;10313812;28;20436;-84
2023/03/09 14:21:57;;;;;;;22.65;16.23;;;;;;;;;;10306547;28;20422;-83
2023/03/09 14:27:14;;;;;;;23.23;15.82;;;;;;;;;;10309803;28;20752;-83
2023/03/09 14:32:23;;;;;;;22.10;16.42;;;;;;;;;;10314988;28;20459;-84
2023/03/09 14:37:27;;;;;;;24.75;17.20;;;;;;;;;;10307380;28;20422;-83
2023/03/09 14:42:33;;;;;;;21.83;17.17;;;;;;;;;;10312557;28;20879;-83
2023/03/09 14:47:35;;;;;;;24.15;16.15;;;;;;;;;;10317282;28;20419;-84
2023/03/09 14:52:38;;;;;;;21.93;15.83;;;;;;;;;;10321285;28;20428;-84
2023/03/09 14:57:41;;;;;;;23.25;15.73;;;;;;;;;;10321644;28;20408;-84
2023/03/09 15:02:43;;;;;;;23.02;15.38;;;;;;;;;;10326758;28;20927;-84
2023/03/09 15:07:46;;;;;;;21.15;14.73;;;;;;;;;;10327407;28;20487;-83
2023/03/09 15:12:51;;;;;;;20.02;14.23;;;;;;;;;;10325225;28;20437;-83
2023/03/09 15:17:56;;;;;;;22.80;15.07;;;;;;;;;;10323935;28;20540;-83
2023/03/09 15:22:57;;;;;;;21.50;14.88;;;;;;;;;;10322997;28;20909;-83
2023/03/09 15:28:01;;;;;;;22.42;15.32;;;;;;;;;;10324301;28;20424;-82
2023/03/09 15:33:03;;;;;;;19.98;14.45;;;;;;;;;;10325565;28;20909;-82
2023/03/09 15:38:04;;;;;;;26.38;15.20;;;;;;;;;;10326150;28;20412;-83
2023/03/09 15:43:08;;;;;;;20.80;14.55;;;;;;;;;;10326340;28;20484;-83
2023/03/09 15:48:10;;;;;;;21.50;14.48;;;;;;;;;;10325366;28;20807;-83
2023/03/09 15:53:12;;;;;;;19.73;13.77;;;;;;;;;;10325999;28;20436;-83
2023/03/09 15:58:15;;;;;;;21.45;14.10;;;;;;;;;;10332614;28;20981;-83
2023/03/09 16:03:18;;;;;;;22.27;14.03;;;;;;;;;;10326112;28;20409;-84
2023/03/09 16:08:20;;;;;;;19.45;12.45;;;;;;;;;;10321641;28;20928;-83
2023/03/09 16:13:23;;;;;;;18.25;13.15;;;;;;;;;;10324893;28;20459;-83
2023/03/09 16:18:25;;;;;;;18.92;12.65;;;;;;;;;;10325712;28;20431;-83
2023/03/09 16:23:26;;;;;;;18.48;12.40;;;;;;;;;;10325088;28;20408;-84
2023/03/09 16:28:30;;;;;;;17.77;11.67;;;;;;;;;;10324651;28;20421;-84
2023/03/09 16:33:32;;;;;;;16.37;11.07;;;;;;;;;;10322988;28;20426;-84
2023/03/09 16:38:34;;;;;;;18.02;12.10;;;;;;;;;;10332776;28;20420;-84
2023/03/09 16:43:38;;;;;;;17.40;11.55;;;;;;;;;;10326316;28;20487;-83
2023/03/09 16:48:40;;;;;;;18.27;12.60;;;;;;;;;;10331729;28;20425;-85
2023/03/09 16:53:41;;;;;;;20.35;12.60;;;;;;;;;;10332189;28;20436;-84
2023/03/09 16:58:45;;;;;;;19.07;12.60;;;;;;;;;;10331429;28;20470;-85
2023/03/09 17:03:46;;;;;;;19.98;13.50;;;;;;;;;;10340431;28;20484;-84
2023/03/09 17:08:51;;;;;;;19.53;13.27;;;;;;;;;;10331086;28;20467;-83
2023/03/09 17:13:54;;;;;;;21.60;13.35;;;;;;;;;;10331128;28;20783;-84
2023/03/09 17:18:57;;;;;;;20.85;12.30;;;;;;;;;;10325374;28;20440;-84
2023/03/09 17:23:59;;;;;;;19.23;13.65;;;;;;;;;;10324680;28;20424;-83
2023/03/09 17:29:05;;;;;;;21.00;13.47;;;;;;;;;;10327100;28;20408;-82
2023/03/09 17:34:07;;;;;;;21.90;14.53;;;;;;;;;;10312394;28;20439;-84
2023/03/09 17:39:09;;;;;;;21.33;14.20;;;;;;;;;;10317144;28;20458;-83
2023/03/09 17:44:12;;;;;;;22.80;14.40;;;;;;;;;;10321090;28;20519;-83
2023/03/09 17:49:14;;;;;;;21.85;15.13;;;;;;;;;;10320621;28;21015;-83
2023/03/09 17:54:16;;;;;;;27.42;18.27;;;;;;;;;;10314538;28;20446;-82
2023/03/09 17:59:19;;;;;;;25.83;17.35;;;;;;;;;;10314858;28;20408;-82
2023/03/09 18:04:21;;;;;;;21.50;14.82;;;;;;;;;;10313338;28;20787;-82
2023/03/09 18:09:23;;;;;;;22.53;16.03;;;;;;;;;;10319410;28;20443;-82
2023/03/09 18:14:26;;;;;;;24.15;16.30;;;;;;;;;;10319074;28;20425;-82
2023/03/09 18:19:28;;;;;;;24.58;17.13;;;;;;;;;;10317179;28;21085;-84
2023/03/09 18:24:30;;;;;;;29.55;17.38;;;;;;;;;;10319707;28;20423;-83
2023/03/09 18:29:33;;;;;;;28.90;17.77;;;;;;;;;;10310331;28;20938;-84
2023/03/09 18:34:37;;;;;;;28.77;18.20;;;;;;;;;;10318710;28;20429;-83
2023/03/09 18:39:39;;;;;;;31.50;20.65;;;;;;;;;;10311425;28;20437;-84
2023/03/09 18:44:42;;;;;;;33.80;22.13;;;;;;;;;;10312173;28;20767;-84
2023/03/09 18:49:44;;;;;;;39.45;24.90;;;;;;;;;;10319431;28;20532;-84
2023/03/09 18:54:47;;;;;;;34.83;22.67;;;;;;;;;;10317711;28;20503;-84
2023/03/09 18:59:51;;;;;;;28.48;19.08;;;;;;;;;;10316552;28;20531;-84
2023/03/09 19:04:54;;;;;;;31.63;20.13;;;;;;;;;;10316084;28;20427;-82
2023/03/09 19:09:56;;;;;;;31.83;20.55;;;;;;;;;;10295202;28;20416;-82
2023/03/09 19:15:00;;;;;;;32.33;20.90;;;;;;;;;;10315852;28;20420;-83
2023/03/09 19:20:02;;;;;;;54.65;29.25;;;;;;;;;;10317777;28;20420;-82
2023/03/09 19:25:05;;;;;;;91.85;44.47;;;;;;;;;;10316331;28;20448;-83
2023/03/09 19:30:11;;;;;;;59.40;33.65;;;;;;;;;;10315247;28;20830;-83
2023/03/09 19:35:13;;;;;;;44.45;27.30;;;;;;;;;;10313816;28;20919;-82
2023/03/09 19:40:15;;;;;;;38.67;24.40;;;;;;;;;;10315322;28;20854;-82
2023/03/09 19:45:18;;;;;;;44.60;29.50;;;;;;;;;;10315325;28;20488;-83
2023/03/09 19:50:20;;;;;;;37.15;24.02;;;;;;;;;;10314349;28;20463;-84
2023/03/09 19:55:22;;;;;;;35.97;22.30;;;;;;;;;;10315296;28;20521;-84
2023/03/09 20:00:25;;;;;;;31.02;21.35;;;;;;;;;;10313103;28;20563;-84
2023/03/09 20:05:29;;;;;;;36.92;21.95;;;;;;;;;;10314554;28;20413;-83
2023/03/09 20:10:31;;;;;;;33.25;22.17;;;;;;;;;;10322743;28;20416;-86
2023/03/09 20:15:34;;;;;;;38.97;23.00;;;;;;;;;;10328631;28;20432;-86
2023/03/09 20:20:38;;;;;;;32.37;20.10;;;;;;;;;;10328451;28;20520;-86
2023/03/09 20:25:40;;;;;;;31.55;20.33;;;;;;;;;;10327779;28;20434;-86
2023/03/09 20:30:43;;;;;;;30.60;19.88;;;;;;;;;;10327784;28;21174;-86
2023/03/09 20:35:45;;;;;;;28.80;19.60;;;;;;;;;;10325137;28;21058;-86
2023/03/09 20:40:51;;;;;;;28.42;19.52;;;;;;;;;;10328523;28;20994;-85
2023/03/09 20:45:57;;;;;;;32.10;19.45;;;;;;;;;;10327413;28;20451;-85
2023/03/09 20:50:59;;;;;;;27.00;18.40;;;;;;;;;;10326458;28;20442;-85
2023/03/09 20:56:01;;;;;;;29.73;18.90;;;;;;;;;;10328251;28;20416;-85
2023/03/09 21:01:09;;;;;;;30.45;18.83;;;;;;;;;;10328549;28;20435;-85
2023/03/09 21:06:12;;;;;;;28.23;18.07;;;;;;;;;;10330541;28;20428;-85
2023/03/09 21:11:17;;;;;;;27.43;19.33;;;;;;;;;;10332445;28;21755;-86
2023/03/09 21:16:23;;;;;;;26.40;18.73;;;;;;;;;;10329229;28;20515;-83
2023/03/09 21:21:25;;;;;;;29.83;19.02;;;;;;;;;;10328776;28;20479;-85
2023/03/09 21:26:27;;;;;;;28.33;17.90;;;;;;;;;;10324124;28;20844;-85
2023/03/09 21:31:32;;;;;;;24.30;17.37;;;;;;;;;;10322668;28;20471;-85
2023/03/09 21:36:33;;;;;;;27.40;17.63;;;;;;;;;;10323723;28;20432;-86
2023/03/09 21:41:35;;;;;;;23.98;17.35;;;;;;;;;;10324879;28;20421;-86
2023/03/09 21:46:39;;;;;;;23.77;17.27;;;;;;;;;;10317898;28;20487;-86
2023/03/09 21:51:40;;;;;;;25.52;17.23;;;;;;;;;;10326643;28;20444;-85
2023/03/09 21:56:42;;;;;;;26.10;17.77;;;;;;;;;;10326828;28;20417;-85
2023/03/09 22:01:47;;;;;;;27.15;17.60;;;;;;;;;;10326737;28;20463;-85
2023/03/09 22:06:52;;;;;;;28.73;17.58;;;;;;;;;;10327492;28;20966;-85
2023/03/09 22:11:54;;;;;;;25.35;17.25;;;;;;;;;;10327880;28;20853;-85
2023/03/09 22:17:09;;;;;;;26.27;16.83;;;;;;;;;;10325815;28;20425;-85
2023/03/09 22:22:10;;;;;;;27.00;16.83;;;;;;;;;;10328930;28;20429;-86
2023/03/09 22:27:12;;;;;;;26.37;17.10;;;;;;;;;;10328344;28;20427;-85
2023/03/09 22:32:16;;;;;;;26.35;17.35;;;;;;;;;;10325885;28;20417;-85
2023/03/09 22:37:19;;;;;;;27.27;17.77;;;;;;;;;;10328219;28;20491;-85
2023/03/09 22:42:21;;;;;;;26.57;17.77;;;;;;;;;;10325529;28;20409;-85
2023/03/09 22:47:24;;;;;;;30.20;17.90;;;;;;;;;;10327792;28;20447;-85
2023/03/09 22:52:26;;;;;;;27.13;17.15;;;;;;;;;;10325360;28;20417;-85
2023/03/09 22:57:31;;;;;;;28.35;17.83;;;;;;;;;;10325944;28;20760;-85
2023/03/09 23:02:34;;;;;;;29.00;17.33;;;;;;;;;;10326421;28;20492;-85
2023/03/09 23:07:36;;;;;;;28.33;17.17;;;;;;;;;;10326833;28;20941;-85
2023/03/09 23:12:38;;;;;;;26.70;16.65;;;;;;;;;;10325948;28;20417;-85
2023/03/09 23:17:41;;;;;;;24.53;16.07;;;;;;;;;;10326620;28;20439;-85
2023/03/09 23:22:44;;;;;;;28.10;16.93;;;;;;;;;;10326692;28;20420;-86
2023/03/09 23:27:46;;;;;;;26.00;16.87;;;;;;;;;;10326700;28;20482;-86
2023/03/09 23:32:49;;;;;;;32.67;16.73;;;;;;;;;;10322772;28;20476;-85
2023/03/09 23:37:51;;;;;;;23.45;16.17;;;;;;;;;;10326924;28;20428;-85
2023/03/09 23:42:52;;;;;;;24.70;16.00;;;;;;;;;;10325419;28;20896;-86
2023/03/09 23:47:58;;;;;;;29.80;16.52;;;;;;;;;;10325590;28;20827;-85
2023/03/09 23:53:00;;;;;;;27.05;15.98;;;;;;;;;;10325600;28;20409;-85
2023/03/09 23:58:02;;;;;;;23.57;16.77;;;;;;;;;;10323439;28;20531;-86
